レゾリュート の空港の天気 - METARとTAF

レゾリュート空港 ( CYRB / YRB ) - カナダ ヌナブト準州レゾリュート
飛行場実況気象(Metar)
観測時間07/17 23:00 CDT (07/18 04:00 UTC)
風向・風速南東 8m/s
視程10km以上
天気現象
全天の4割程度の雲 雲底高度 4570m
全天を覆う雲 雲底高度 7320m
気温9℃
湿度76%
気圧1005.5hPa
METARCYRB 180400Z 13016KT 15SM SCT150 OVC240 09/05 A2968 RMK AC3CS5 SLP055
過去の天気等 Google飛行場航空写真 Wunderground天気予報

過去48時間のMETAR

飛行場予報(TAF)
発表時間: 7/17 18:38 CDT (7/17 23:38 UTC)
予報対象時間: 17日19時 CDT ~ 18日19時 CDT
風向・風速南南東 8m/s
視程10km以上
全天の4割程度の雲 雲底高度 1830m
全天の8割程度の雲 雲底高度 6100m
17日19時 CDT ~ 18日13時 CDT に一時的に
視程10km以上
天気現象弱い雨
全天の8割程度の雲 雲底高度 1830m
18日13時 CDT から
風向・風速南南東 5m/s
視程10km以上
天気現象弱い雨
全天を覆う雲 雲底高度 910m
18日13時 CDT ~ 18日19時 CDT に一時的に
視程4830m
天気現象弱い雨 もや
全天の8割程度の雲 雲底高度 240m
全天を覆う雲 雲底高度 610m
TAF CYRB 172338Z 1800/1824 15015KT P6SM SCT060 BKN200
TEMPO 1800/1818 P6SM -RA BKN060
FM181800 16010KT 6SM -RA OVC030
TEMPO 1818/1824 3SM -RA BR BKN008 OVC020 RMK NXT FCST BY 180600Z